createdAt,value
2022-10-10T00:00:46.640Z,12.04
2022-10-10T00:01:48.791Z,12.02
2022-10-10T00:02:55.834Z,11.96
2022-10-10T00:03:58.352Z,11.98
2022-10-10T00:05:00.540Z,11.88
2022-10-10T00:06:02.582Z,11.95
2022-10-10T00:07:07.226Z,11.87
2022-10-10T00:08:10.297Z,11.98
2022-10-10T00:09:12.286Z,11.92
2022-10-10T00:10:17.801Z,12.01
2022-10-10T00:11:24.322Z,11.94
2022-10-10T00:12:26.374Z,11.86
2022-10-10T00:13:28.558Z,11.94
2022-10-10T00:14:32.576Z,11.85
2022-10-10T00:15:34.762Z,11.88
2022-10-10T00:16:36.885Z,11.93
2022-10-10T00:17:39.880Z,11.76
2022-10-10T00:18:42.938Z,11.82
2022-10-10T00:19:44.898Z,11.82
2022-10-10T00:20:52.512Z,11.78
2022-10-10T00:21:54.684Z,11.77
2022-10-10T00:22:59.303Z,11.88
2022-10-10T00:24:02.795Z,11.90
2022-10-10T00:25:06.501Z,11.90
2022-10-10T00:26:09.564Z,11.89
2022-10-10T00:27:12.335Z,11.83
2022-10-10T00:28:15.774Z,11.77
2022-10-10T00:29:18.365Z,11.80
2022-10-10T00:30:20.383Z,11.91
2022-10-10T00:31:23.347Z,11.92
2022-10-10T00:32:27.260Z,11.87
2022-10-10T00:33:29.383Z,11.95
2022-10-10T00:34:31.372Z,11.95
2022-10-10T00:35:35.876Z,11.83
2022-10-10T00:36:39.793Z,11.83
2022-10-10T00:37:41.752Z,11.85
2022-10-10T00:38:45.192Z,11.88
2022-10-10T00:39:47.103Z,11.76
2022-10-10T00:40:52.216Z,11.73
2022-10-10T00:41:54.271Z,11.79
2022-10-10T00:42:57.962Z,11.82
2022-10-10T00:44:10.450Z,11.80
2022-10-10T00:45:43.336Z,11.80
2022-10-10T00:46:45.391Z,11.85
2022-10-10T00:47:48.020Z,11.91
2022-10-10T00:48:50.285Z,11.77
2022-10-10T00:49:52.311Z,11.68
2022-10-10T00:51:03.047Z,11.73
2022-10-10T00:52:09.577Z,11.77
2022-10-10T00:53:16.145Z,11.82
2022-10-10T00:54:21.404Z,11.88
2022-10-10T00:55:25.327Z,11.87
2022-10-10T00:56:32.062Z,11.77
2022-10-10T00:57:36.850Z,11.74
2022-10-10T00:58:43.478Z,11.80
2022-10-10T00:59:46.775Z,11.80
2022-10-10T01:00:51.162Z,11.77
2022-10-10T01:01:53.361Z,11.72
2022-10-10T01:02:55.967Z,11.66
2022-10-10T01:04:00.968Z,11.61
2022-10-10T01:05:06.903Z,11.74
2022-10-10T01:06:09.497Z,11.78
2022-10-10T01:07:16.440Z,11.79
2022-10-10T01:08:20.232Z,11.87
2022-10-10T01:09:22.393Z,11.90
2022-10-10T01:10:25.420Z,11.92
2022-10-10T01:11:48.772Z,11.81
2022-10-10T01:13:03.065Z,11.77
2022-10-10T01:14:12.767Z,11.80
2022-10-10T01:16:09.410Z,11.75
2022-10-10T01:17:34.255Z,11.59
2022-10-10T01:19:00.928Z,11.59
2022-10-10T01:20:22.494Z,11.69
2022-10-10T01:21:43.167Z,11.71
2022-10-10T01:23:20.142Z,11.70
2022-10-10T01:24:43.518Z,11.72
2022-10-10T01:26:21.824Z,11.75
2022-10-10T01:27:33.818Z,11.82
2022-10-10T01:28:43.413Z,11.82
2022-10-10T01:30:03.741Z,11.60
2022-10-10T01:31:10.529Z,11.75
2022-10-10T01:32:41.938Z,11.68
2022-10-10T01:34:06.047Z,11.78
2022-10-10T01:35:22.177Z,11.73
2022-10-10T01:36:59.512Z,11.73
2022-10-10T01:38:13.688Z,11.66
2022-10-10T01:39:26.610Z,11.64
2022-10-10T01:40:41.415Z,11.77
2022-10-10T01:41:50.991Z,11.77
2022-10-10T01:43:02.901Z,11.72
2022-10-10T01:44:05.716Z,11.74
2022-10-10T01:45:08.384Z,11.63
2022-10-10T01:46:16.584Z,11.75
2022-10-10T01:47:19.507Z,11.81
2022-10-10T01:48:30.752Z,11.83
2022-10-10T01:49:35.748Z,11.68
2022-10-10T01:51:14.038Z,11.77
2022-10-10T01:52:30.619Z,11.68
2022-10-10T01:54:01.135Z,11.48
2022-10-10T01:55:09.765Z,11.51
2022-10-10T01:56:40.914Z,11.38
2022-10-10T01:57:48.603Z,11.47
2022-10-10T01:59:21.291Z,11.37
2022-10-10T02:00:24.341Z,11.29
2022-10-10T02:01:44.281Z,11.38
2022-10-10T02:03:13.074Z,11.40
2022-10-10T02:04:32.744Z,11.51
2022-10-10T02:05:57.651Z,11.36
2022-10-10T02:07:17.803Z,11.35
2022-10-10T02:08:31.773Z,11.33
2022-10-10T02:09:41.087Z,11.37
2022-10-10T02:10:53.100Z,11.33
2022-10-10T02:11:57.144Z,11.29
2022-10-10T02:13:04.877Z,11.29
2022-10-10T02:14:15.026Z,11.35
2022-10-10T02:15:22.295Z,11.33
2022-10-10T02:16:32.103Z,11.39
2022-10-10T02:17:38.505Z,11.37
2022-10-10T02:18:45.610Z,11.33
2022-10-10T02:19:54.247Z,11.34
2022-10-10T02:20:56.680Z,11.20
2022-10-10T02:22:00.574Z,11.31
2022-10-10T02:23:03.562Z,11.33
2022-10-10T02:24:08.231Z,11.37
2022-10-10T02:25:10.900Z,11.25
2022-10-10T02:26:18.597Z,11.29
2022-10-10T02:27:35.664Z,11.26
2022-10-10T02:29:02.050Z,11.28
2022-10-10T02:30:07.089Z,11.23
2022-10-10T02:31:19.133Z,11.29
2022-10-10T02:32:34.741Z,11.28
2022-10-10T02:34:00.667Z,11.29
2022-10-10T02:35:10.379Z,11.38
2022-10-10T02:36:14.926Z,11.37
2022-10-10T02:37:17.583Z,11.38
2022-10-10T02:38:20.392Z,11.27
2022-10-10T02:39:27.018Z,11.24
2022-10-10T02:40:31.810Z,11.17
2022-10-10T02:41:37.442Z,11.17
2022-10-10T02:42:40.575Z,11.31
2022-10-10T02:43:42.959Z,11.23
2022-10-10T02:44:46.499Z,11.21
2022-10-10T02:45:48.519Z,11.18
2022-10-10T02:46:50.522Z,11.32
2022-10-10T02:47:57.304Z,11.18
2022-10-10T02:49:01.920Z,11.17
2022-10-10T02:50:04.117Z,11.18
2022-10-10T02:51:07.119Z,11.29
2022-10-10T02:52:11.307Z,11.33
2022-10-10T02:53:16.016Z,11.30
2022-10-10T02:54:17.991Z,11.26
2022-10-10T02:55:20.801Z,11.30
2022-10-10T02:56:22.834Z,11.26
2022-10-10T02:57:24.828Z,11.20
2022-10-10T02:58:26.832Z,11.20
2022-10-10T02:59:28.760Z,11.04
2022-10-10T03:00:30.769Z,11.04
2022-10-10T03:01:33.352Z,11.03
2022-10-10T03:02:35.531Z,11.02
2022-10-10T03:03:37.575Z,10.96
2022-10-10T03:04:39.769Z,11.11
2022-10-10T03:05:46.905Z,11.02
2022-10-10T03:06:50.331Z,11.06
2022-10-10T03:07:52.323Z,11.01
2022-10-10T03:08:54.422Z,11.01
2022-10-10T03:09:57.263Z,10.89
2022-10-10T03:11:01.427Z,10.79
2022-10-10T03:12:04.135Z,10.91
2022-10-10T03:13:06.157Z,10.99
2022-10-10T03:14:08.136Z,10.94
2022-10-10T03:15:11.903Z,10.98
2022-10-10T03:16:14.297Z,10.95
2022-10-10T03:17:16.322Z,10.91
2022-10-10T03:18:18.701Z,10.82
2022-10-10T03:19:20.825Z,10.93
2022-10-10T03:20:25.463Z,11.00
2022-10-10T03:21:27.951Z,11.00
2022-10-10T03:22:30.722Z,10.95
2022-10-10T03:23:35.579Z,10.94
2022-10-10T03:24:39.983Z,10.90
2022-10-10T03:25:43.755Z,10.95
2022-10-10T03:26:45.804Z,10.85
2022-10-10T03:27:48.638Z,10.91
2022-10-10T03:28:50.692Z,10.89
2022-10-10T03:29:52.839Z,10.86
2022-10-10T03:30:55.246Z,10.87
2022-10-10T03:31:57.533Z,10.86
2022-10-10T03:32:59.564Z,10.75
2022-10-10T03:34:01.822Z,10.72
2022-10-10T03:35:06.604Z,10.75
2022-10-10T03:36:08.634Z,10.68
2022-10-10T03:37:10.588Z,10.68
2022-10-10T03:38:13.488Z,10.73
2022-10-10T03:39:15.752Z,10.85
2022-10-10T03:40:18.030Z,10.68
2022-10-10T03:41:19.958Z,10.71
2022-10-10T03:42:24.089Z,10.64
2022-10-10T03:43:26.086Z,10.68
2022-10-10T03:44:28.025Z,10.73
2022-10-10T03:45:30.990Z,10.70
2022-10-10T03:46:34.534Z,10.76
2022-10-10T03:47:36.645Z,10.74
2022-10-10T03:48:40.134Z,10.78
2022-10-10T03:49:44.104Z,10.75
2022-10-10T03:50:47.283Z,10.77
2022-10-10T03:51:50.303Z,10.76
2022-10-10T03:52:53.849Z,10.78
2022-10-10T03:53:57.079Z,10.81
2022-10-10T03:55:00.690Z,10.84
2022-10-10T03:56:04.912Z,10.78
2022-10-10T03:57:07.034Z,10.81
2022-10-10T03:58:10.965Z,10.87
2022-10-10T03:59:13.124Z,10.93
2022-10-10T04:00:15.329Z,10.89
2022-10-10T04:01:18.470Z,10.85
2022-10-10T04:02:20.603Z,10.91
2022-10-10T04:03:23.290Z,10.89
2022-10-10T04:04:25.438Z,10.79
2022-10-10T04:05:27.587Z,10.81
2022-10-10T04:06:30.241Z,10.82
2022-10-10T04:07:32.771Z,10.81
2022-10-10T04:08:35.918Z,10.82
2022-10-10T04:09:37.880Z,10.89
2022-10-10T04:10:42.326Z,10.94
2022-10-10T04:11:44.498Z,10.91
2022-10-10T04:12:46.513Z,10.85
2022-10-10T04:13:48.546Z,10.79
2022-10-10T04:14:50.722Z,10.77
2022-10-10T04:16:00.097Z,10.72
2022-10-10T04:17:04.650Z,10.73
2022-10-10T04:18:06.725Z,10.69
2022-10-10T04:19:08.892Z,10.76
2022-10-10T04:20:13.426Z,10.67
2022-10-10T04:21:18.082Z,10.63
2022-10-10T04:22:22.142Z,10.63
2022-10-10T04:23:25.257Z,10.67
2022-10-10T04:24:27.290Z,10.64
2022-10-10T04:25:31.598Z,10.65
2022-10-10T04:26:33.759Z,10.69
2022-10-10T04:27:35.741Z,10.68
2022-10-10T04:28:38.096Z,10.70
2022-10-10T04:29:40.285Z,10.67
2022-10-10T04:30:43.237Z,10.68
2022-10-10T04:31:45.333Z,10.71
2022-10-10T04:32:47.733Z,10.66
2022-10-10T04:33:50.536Z,10.72
2022-10-10T04:34:52.549Z,10.80
2022-10-10T04:35:54.506Z,10.75
2022-10-10T04:36:56.568Z,10.71
2022-10-10T04:37:58.876Z,10.79
2022-10-10T04:39:00.928Z,10.95
2022-10-10T04:40:03.977Z,10.89
2022-10-10T04:41:06.380Z,10.91
2022-10-10T04:42:08.978Z,10.85
2022-10-10T04:43:11.992Z,10.88
2022-10-10T04:44:15.036Z,10.77
2022-10-10T04:45:17.081Z,10.76
2022-10-10T04:46:20.629Z,10.76
2022-10-10T04:47:23.264Z,10.76
2022-10-10T04:48:25.531Z,10.82
2022-10-10T04:49:35.125Z,10.81
2022-10-10T04:50:37.321Z,10.81
2022-10-10T04:51:39.344Z,10.83
2022-10-10T04:52:41.968Z,10.73
2022-10-10T04:53:48.109Z,10.77
2022-10-10T04:54:52.201Z,10.85
2022-10-10T04:55:54.332Z,10.83
2022-10-10T04:56:56.324Z,10.84
2022-10-10T04:58:01.198Z,10.81
2022-10-10T04:59:03.301Z,10.80
2022-10-10T05:00:06.867Z,10.81
2022-10-10T05:01:11.142Z,10.82
2022-10-10T05:02:13.410Z,10.77
2022-10-10T05:03:16.288Z,10.77
2022-10-10T05:04:21.995Z,10.76
2022-10-10T05:05:24.040Z,10.73
2022-10-10T05:06:26.073Z,10.71
2022-10-10T05:07:28.715Z,10.75
2022-10-10T05:08:31.181Z,10.81
2022-10-10T05:09:35.950Z,10.86
2022-10-10T05:10:40.553Z,10.85
2022-10-10T05:11:42.608Z,10.87
2022-10-10T05:12:44.755Z,10.75
2022-10-10T05:13:47.278Z,10.92
2022-10-10T05:14:49.484Z,11.07
2022-10-10T05:15:52.736Z,11.21
2022-10-10T05:16:55.257Z,11.19
2022-10-10T05:17:57.397Z,11.13
2022-10-10T05:18:59.444Z,11.14
2022-10-10T05:20:01.424Z,11.11
2022-10-10T05:21:07.597Z,11.11
2022-10-10T05:22:09.909Z,11.13
2022-10-10T05:23:11.906Z,11.26
2022-10-10T05:24:15.065Z,11.25
2022-10-10T05:25:20.707Z,11.02
2022-10-10T05:26:22.952Z,11.11
2022-10-10T05:27:25.277Z,11.21
2022-10-10T05:28:32.235Z,11.26
2022-10-10T05:29:35.694Z,11.40
2022-10-10T05:30:37.968Z,11.42
2022-10-10T05:31:39.925Z,11.36
2022-10-10T05:32:45.665Z,11.56
2022-10-10T05:33:47.997Z,11.43
2022-10-10T05:34:50.251Z,11.39
2022-10-10T05:35:53.745Z,11.47
2022-10-10T05:36:56.996Z,11.48
2022-10-10T05:37:59.223Z,11.48
2022-10-10T05:39:02.626Z,11.57
2022-10-10T05:40:05.704Z,11.42
2022-10-10T05:41:08.846Z,11.46
2022-10-10T05:42:14.079Z,11.59
2022-10-10T05:43:16.200Z,11.68
2022-10-10T05:44:18.221Z,11.56
2022-10-10T05:45:20.283Z,11.59
2022-10-10T05:46:24.823Z,11.62
2022-10-10T05:47:28.023Z,11.60
2022-10-10T05:48:30.662Z,11.42
2022-10-10T05:49:32.985Z,11.51
2022-10-10T05:50:38.966Z,11.66
2022-10-10T05:51:40.993Z,11.60
2022-10-10T05:52:43.372Z,11.63
2022-10-10T05:53:45.522Z,11.34
2022-10-10T05:54:47.761Z,11.36
2022-10-10T05:55:50.115Z,11.57
2022-10-10T05:56:52.537Z,11.65
2022-10-10T05:57:59.203Z,11.37
2022-10-10T05:59:01.773Z,11.17
2022-10-10T06:00:04.298Z,11.27
2022-10-10T06:01:08.102Z,11.10
2022-10-10T06:02:11.967Z,11.15
2022-10-10T06:03:17.906Z,11.19
2022-10-10T06:04:19.887Z,11.05
2022-10-10T06:05:22.899Z,11.11
2022-10-10T06:06:26.362Z,11.21
2022-10-10T06:07:45.506Z,11.35
2022-10-10T06:08:50.803Z,11.35
2022-10-10T06:09:52.850Z,11.33
2022-10-10T06:10:54.898Z,11.44
2022-10-10T06:11:57.528Z,11.42
2022-10-10T06:12:59.608Z,11.46
2022-10-10T06:14:01.781Z,11.43
2022-10-10T06:15:06.489Z,11.54
2022-10-10T06:16:10.447Z,11.39
2022-10-10T06:17:12.729Z,11.52
2022-10-10T06:18:17.372Z,11.51
2022-10-10T06:19:19.422Z,11.58
2022-10-10T06:20:21.636Z,11.61
2022-10-10T06:21:24.142Z,11.62
2022-10-10T06:22:27.816Z,11.51
2022-10-10T06:23:31.331Z,11.56
2022-10-10T06:24:33.863Z,11.50
2022-10-10T06:25:41.549Z,11.64
2022-10-10T06:26:44.064Z,11.71
2022-10-10T06:27:46.114Z,11.47
2022-10-10T06:28:50.905Z,11.40
2022-10-10T06:29:53.293Z,11.32
2022-10-10T06:31:01.075Z,11.39
2022-10-10T06:32:03.044Z,11.62
2022-10-10T06:33:07.698Z,12.79
2022-10-10T06:34:09.969Z,14.33
2022-10-10T06:35:12.104Z,15.36
2022-10-10T06:36:15.566Z,15.36
2022-10-10T06:37:19.185Z,15.75
2022-10-10T06:38:21.718Z,16.98
2022-10-10T06:39:26.507Z,17.13
2022-10-10T06:40:28.578Z,17.98
2022-10-10T06:41:33.210Z,18.08
2022-10-10T06:42:35.471Z,18.51
2022-10-10T06:43:38.826Z,18.44
2022-10-10T06:44:40.844Z,18.69
2022-10-10T06:45:46.035Z,19.17
2022-10-10T06:46:48.002Z,19.07
2022-10-10T06:47:50.149Z,19.89
2022-10-10T06:48:52.130Z,20.43
2022-10-10T06:49:54.126Z,20.77
2022-10-10T06:51:07.373Z,20.24
2022-10-10T06:52:09.423Z,19.60
2022-10-10T06:53:11.524Z,19.73
2022-10-10T06:54:13.708Z,19.60
2022-10-10T06:55:15.680Z,19.42
2022-10-10T06:56:26.290Z,19.12
2022-10-10T06:57:29.697Z,19.97
2022-10-10T06:58:32.755Z,19.44
2022-10-10T06:59:35.427Z,19.42
2022-10-10T07:00:37.619Z,19.87
2022-10-10T07:01:40.713Z,19.83
2022-10-10T07:02:42.884Z,19.57
2022-10-10T07:03:45.123Z,20.63
2022-10-10T07:04:47.195Z,21.03
2022-10-10T07:05:51.162Z,19.01
2022-10-10T07:06:53.283Z,19.13
2022-10-10T07:07:55.397Z,19.66
2022-10-10T07:08:58.353Z,20.16
2022-10-10T07:10:00.342Z,20.57
2022-10-10T07:11:03.218Z,20.46
2022-10-10T07:12:05.498Z,20.60
2022-10-10T07:13:09.916Z,21.66
2022-10-10T07:14:14.878Z,21.84
2022-10-10T07:15:18.380Z,21.28
2022-10-10T07:16:23.405Z,21.41
2022-10-10T07:17:25.787Z,20.55
2022-10-10T07:18:28.552Z,19.89
2022-10-10T07:19:30.567Z,20.66
2022-10-10T07:20:33.596Z,20.87
2022-10-10T07:21:36.252Z,20.71
2022-10-10T07:22:38.223Z,20.86
2022-10-10T07:23:41.119Z,21.59
2022-10-10T07:24:43.316Z,21.61
2022-10-10T07:25:45.418Z,21.11
2022-10-10T07:26:47.622Z,21.49
2022-10-10T07:27:51.285Z,21.86
2022-10-10T07:28:53.222Z,21.47
2022-10-10T07:29:55.426Z,21.19
2022-10-10T07:31:06.287Z,21.79
2022-10-10T07:32:09.597Z,22.32
2022-10-10T07:33:13.585Z,21.57
2022-10-10T07:34:15.606Z,21.39
2022-10-10T07:35:18.000Z,22.20
2022-10-10T07:36:20.693Z,21.59
2022-10-10T07:37:23.188Z,21.60
2022-10-10T07:38:26.422Z,21.20
2022-10-10T07:39:28.554Z,20.22
2022-10-10T07:40:30.640Z,21.07
2022-10-10T07:41:33.206Z,20.96
2022-10-10T07:42:36.075Z,21.47
2022-10-10T07:43:38.454Z,21.44
2022-10-10T07:44:40.588Z,21.60
2022-10-10T07:45:42.573Z,21.84
2022-10-10T07:46:46.328Z,22.41
2022-10-10T07:47:48.548Z,22.29
2022-10-10T07:48:50.961Z,22.54
2022-10-10T07:49:53.005Z,22.66
2022-10-10T07:50:55.342Z,22.77
2022-10-10T07:52:00.601Z,23.03
2022-10-10T07:53:03.523Z,21.89
2022-10-10T07:54:05.883Z,21.64
2022-10-10T07:55:08.960Z,21.16
2022-10-10T07:56:11.853Z,21.81
2022-10-10T07:57:13.875Z,21.35
2022-10-10T07:58:16.103Z,21.26
2022-10-10T07:59:18.264Z,21.97
2022-10-10T08:00:20.790Z,20.47
2022-10-10T08:01:23.761Z,21.42
2022-10-10T08:02:26.126Z,22.19
2022-10-10T08:03:28.185Z,21.00
2022-10-10T08:04:30.204Z,20.61
2022-10-10T08:05:32.252Z,20.81
2022-10-10T08:06:34.238Z,20.12
2022-10-10T08:07:36.339Z,20.33
2022-10-10T08:08:47.115Z,21.14
2022-10-10T08:09:52.450Z,20.27
2022-10-10T08:10:54.375Z,19.64
2022-10-10T08:11:56.893Z,19.48
2022-10-10T08:13:00.238Z,20.13
2022-10-10T08:14:02.302Z,19.77
2022-10-10T08:15:06.104Z,19.67
2022-10-10T08:16:10.405Z,18.94
2022-10-10T08:17:12.604Z,18.17
2022-10-10T08:18:14.915Z,18.63
2022-10-10T08:19:16.963Z,18.75
2022-10-10T08:20:19.290Z,19.07
2022-10-10T08:21:21.538Z,18.53
2022-10-10T08:22:23.685Z,18.78
2022-10-10T08:23:25.873Z,18.73
2022-10-10T08:24:27.887Z,19.88
2022-10-10T08:25:30.160Z,20.32
2022-10-10T08:26:32.305Z,20.16
2022-10-10T08:27:34.475Z,20.32
2022-10-10T08:28:38.480Z,19.34
2022-10-10T08:29:40.727Z,19.69
2022-10-10T08:30:42.897Z,20.11
2022-10-10T08:31:47.018Z,20.16
2022-10-10T08:32:50.068Z,19.68
2022-10-10T08:33:53.039Z,18.97
2022-10-10T08:34:55.154Z,18.89
2022-10-10T08:35:57.121Z,19.48
2022-10-10T08:36:59.523Z,19.33
2022-10-10T08:38:01.504Z,19.84
2022-10-10T08:39:04.308Z,19.25
2022-10-10T08:40:07.287Z,19.56
2022-10-10T08:41:30.832Z,19.83
2022-10-10T08:42:51.788Z,18.82
2022-10-10T08:44:25.479Z,18.41
2022-10-10T08:45:29.408Z,17.86
2022-10-10T08:46:39.502Z,18.09
2022-10-10T08:47:56.551Z,17.97
2022-10-10T08:49:14.224Z,17.96
2022-10-10T08:50:23.565Z,18.11
2022-10-10T08:51:31.796Z,18.17
2022-10-10T08:52:45.350Z,18.07
2022-10-10T08:53:55.288Z,17.77
2022-10-10T08:55:01.758Z,18.13
2022-10-10T08:56:08.206Z,18.04
2022-10-10T08:57:26.102Z,18.07
2022-10-10T08:58:33.070Z,18.39
2022-10-10T08:59:40.157Z,18.36
2022-10-10T09:00:49.416Z,18.33
2022-10-10T09:02:18.801Z,18.47
2022-10-10T09:03:45.666Z,17.82
2022-10-10T09:04:50.321Z,17.73
2022-10-10T09:06:01.423Z,17.53
2022-10-10T09:07:22.833Z,17.47
2022-10-10T09:08:39.836Z,17.45
2022-10-10T09:09:53.861Z,17.38
2022-10-10T09:11:01.287Z,17.35
2022-10-10T09:12:31.062Z,16.38
2022-10-10T09:13:36.073Z,16.68
2022-10-10T09:14:45.148Z,15.99
2022-10-10T09:15:59.963Z,15.72
2022-10-10T09:17:17.390Z,15.58
2022-10-10T09:18:30.647Z,15.30
2022-10-10T09:19:55.447Z,15.46
2022-10-10T09:21:08.414Z,15.51
2022-10-10T09:22:19.427Z,15.81
2022-10-10T09:24:03.135Z,15.79
2022-10-10T09:25:16.216Z,15.24
2022-10-10T09:26:27.854Z,15.13
2022-10-10T09:27:35.863Z,15.00
2022-10-10T09:28:49.682Z,15.09
2022-10-10T09:30:20.883Z,15.43
2022-10-10T09:31:43.286Z,15.40
2022-10-10T09:32:56.378Z,15.49
2022-10-10T09:34:14.828Z,15.63
2022-10-10T09:35:24.438Z,15.52
2022-10-10T09:36:34.229Z,15.68
2022-10-10T09:37:47.839Z,15.63
2022-10-10T09:38:59.453Z,15.45
2022-10-10T09:40:04.636Z,15.34
2022-10-10T09:41:11.722Z,15.44
2022-10-10T09:42:22.485Z,15.22
2022-10-10T09:43:31.874Z,15.50
2022-10-10T09:44:34.892Z,15.05
2022-10-10T09:45:44.518Z,15.31
2022-10-10T09:46:46.784Z,15.31
2022-10-10T09:47:53.656Z,15.02
2022-10-10T09:48:55.831Z,15.18
2022-10-10T09:49:59.417Z,15.13
2022-10-10T09:51:04.804Z,15.24
2022-10-10T09:52:30.494Z,14.98
2022-10-10T09:53:32.776Z,14.67
2022-10-10T09:54:34.863Z,14.62
2022-10-10T09:55:41.905Z,14.66
2022-10-10T09:56:53.660Z,14.70
2022-10-10T09:58:01.197Z,14.76
2022-10-10T09:59:04.246Z,14.55
2022-10-10T10:00:19.385Z,14.52
2022-10-10T10:01:30.188Z,14.44
2022-10-10T10:02:32.307Z,14.34
2022-10-10T10:03:35.997Z,14.14
2022-10-10T10:04:38.320Z,14.05
2022-10-10T10:05:46.149Z,14.08
2022-10-10T10:06:52.111Z,14.02
2022-10-10T10:07:57.105Z,14.00
2022-10-10T10:09:06.475Z,13.90
2022-10-10T10:10:28.302Z,13.93
2022-10-10T10:11:40.807Z,14.03
2022-10-10T10:12:45.785Z,13.89
2022-10-10T10:13:55.761Z,13.97
2022-10-10T10:15:02.687Z,14.11
2022-10-10T10:16:14.786Z,14.22
2022-10-10T10:17:21.508Z,14.28
2022-10-10T10:18:28.730Z,14.39
2022-10-10T10:19:30.746Z,14.39
2022-10-10T10:20:37.596Z,14.27
2022-10-10T10:21:51.820Z,14.27
2022-10-10T10:22:54.032Z,14.35
2022-10-10T10:24:02.780Z,14.33
2022-10-10T10:25:32.799Z,14.32
2022-10-10T10:26:45.102Z,14.31
2022-10-10T10:27:47.485Z,14.27
2022-10-10T10:28:51.422Z,14.28
2022-10-10T10:29:58.801Z,14.26
2022-10-10T10:31:01.242Z,14.15
2022-10-10T10:32:12.543Z,14.21
2022-10-10T10:33:31.696Z,14.18
2022-10-10T10:35:15.668Z,14.29
2022-10-10T10:36:37.592Z,14.21
2022-10-10T10:38:01.184Z,14.16
2022-10-10T10:39:25.932Z,14.20
2022-10-10T10:41:10.337Z,14.14
2022-10-10T10:42:24.726Z,14.26
2022-10-10T10:43:46.407Z,14.29
2022-10-10T10:45:09.601Z,14.27
2022-10-10T10:46:36.490Z,14.08
2022-10-10T10:47:47.843Z,14.10
2022-10-10T10:49:17.258Z,14.15
2022-10-10T10:50:52.943Z,14.02
2022-10-10T10:52:16.208Z,14.07
2022-10-10T10:53:53.724Z,14.24
2022-10-10T10:55:14.589Z,14.06
2022-10-10T10:56:48.988Z,14.07
2022-10-10T10:58:22.430Z,13.99
2022-10-10T11:00:20.583Z,14.18
2022-10-10T11:01:44.885Z,14.11
2022-10-10T11:03:27.673Z,14.06
2022-10-10T11:05:18.127Z,14.13
2022-10-10T11:06:12.213Z,14.16
2022-10-10T11:07:26.522Z,14.21
2022-10-10T11:08:36.111Z,14.30
2022-10-10T11:09:50.046Z,14.27
2022-10-10T11:11:01.527Z,14.11
2022-10-10T11:12:17.373Z,14.31
2022-10-10T11:13:24.801Z,13.98
2022-10-10T11:14:37.153Z,14.07
2022-10-10T11:16:05.518Z,14.07
2022-10-10T11:17:37.143Z,13.91
2022-10-10T11:18:49.179Z,13.91
2022-10-10T11:20:03.171Z,13.97
2022-10-10T11:21:14.624Z,13.99
2022-10-10T11:22:22.837Z,13.99
2022-10-10T11:23:42.694Z,14.00
2022-10-10T11:25:13.390Z,13.99
2022-10-10T11:26:25.014Z,14.07
2022-10-10T11:27:30.208Z,13.95
2022-10-10T11:28:49.642Z,13.86
2022-10-10T11:30:07.919Z,13.99
2022-10-10T11:31:42.835Z,13.98
2022-10-10T11:33:05.907Z,13.92
2022-10-10T11:34:20.992Z,13.91
2022-10-10T11:35:35.490Z,13.85
2022-10-10T11:36:47.423Z,13.70
2022-10-10T11:37:56.083Z,13.70
2022-10-10T11:39:15.345Z,13.66
2022-10-10T11:40:32.774Z,13.65
2022-10-10T11:41:45.181Z,13.56
2022-10-10T11:42:55.366Z,13.65
2022-10-10T11:44:19.662Z,13.68
2022-10-10T11:45:45.343Z,13.62
2022-10-10T11:47:14.648Z,13.62
2022-10-10T11:48:43.611Z,13.55
2022-10-10T11:49:59.236Z,13.62
2022-10-10T11:51:15.423Z,13.65
2022-10-10T11:53:00.601Z,13.64
2022-10-10T11:54:12.525Z,13.68
2022-10-10T11:56:04.364Z,13.65
2022-10-10T11:57:30.462Z,13.67
2022-10-10T11:58:51.259Z,13.68
2022-10-10T12:00:00.810Z,13.69
2022-10-10T12:01:31.522Z,13.52
2022-10-10T12:02:37.285Z,13.61
2022-10-10T12:03:39.493Z,13.58
2022-10-10T12:04:41.715Z,13.65
2022-10-10T12:06:03.587Z,13.64
2022-10-10T12:07:18.257Z,13.59
2022-10-10T12:08:26.310Z,13.67
2022-10-10T12:09:36.773Z,13.54
2022-10-10T12:10:46.708Z,13.61
2022-10-10T12:11:59.862Z,13.60
2022-10-10T12:14:02.626Z,13.59
2022-10-10T12:15:13.543Z,13.49
2022-10-10T12:16:20.491Z,13.48
2022-10-10T12:17:32.820Z,13.49
2022-10-10T12:18:41.110Z,13.61
2022-10-10T12:19:44.304Z,13.54
2022-10-10T12:21:03.079Z,13.42
2022-10-10T12:22:08.518Z,13.38
2022-10-10T12:23:14.871Z,13.40
2022-10-10T12:24:16.989Z,13.39
2022-10-10T12:25:44.754Z,13.47
2022-10-10T12:26:55.779Z,13.48
2022-10-10T12:28:17.286Z,13.46
2022-10-10T12:29:40.729Z,13.40
2022-10-10T12:30:58.221Z,13.36
2022-10-10T12:32:17.594Z,13.43
2022-10-10T12:33:20.441Z,13.36
2022-10-10T12:34:50.366Z,13.30
2022-10-10T12:35:54.388Z,13.27
2022-10-10T12:37:10.587Z,13.30
2022-10-10T12:38:15.572Z,13.26
2022-10-10T12:39:17.947Z,13.33
2022-10-10T12:40:21.819Z,13.34
2022-10-10T12:41:47.665Z,13.34
2022-10-10T12:42:57.090Z,13.34
2022-10-10T12:44:25.013Z,13.29
2022-10-10T12:45:31.781Z,13.33
2022-10-10T12:46:35.354Z,13.33
2022-10-10T12:48:04.480Z,13.21
2022-10-10T12:49:24.301Z,13.16
2022-10-10T12:50:29.888Z,13.21
2022-10-10T12:51:37.119Z,13.20
2022-10-10T12:53:00.927Z,13.19
2022-10-10T12:54:05.326Z,13.09
2022-10-10T12:55:21.671Z,13.17
2022-10-10T12:56:40.166Z,13.12
2022-10-10T12:57:45.574Z,13.11
2022-10-10T12:58:49.388Z,13.16
2022-10-10T12:59:53.334Z,13.12
2022-10-10T13:00:58.258Z,13.13
2022-10-10T13:02:10.380Z,13.12
2022-10-10T13:03:27.854Z,13.09
2022-10-10T13:04:34.619Z,13.02
2022-10-10T13:05:41.013Z,13.00
2022-10-10T13:06:48.113Z,12.99
2022-10-10T13:07:53.686Z,12.99
2022-10-10T13:08:59.031Z,12.99
2022-10-10T13:10:20.527Z,12.96
2022-10-10T13:11:25.509Z,13.05
2022-10-10T13:12:30.480Z,12.91
2022-10-10T13:13:32.813Z,12.87
2022-10-10T13:14:46.009Z,12.86
2022-10-10T13:15:58.287Z,12.86
2022-10-10T13:17:00.516Z,12.84
2022-10-10T13:18:06.860Z,12.91
2022-10-10T13:19:20.098Z,12.88
2022-10-10T13:20:46.278Z,12.80
2022-10-10T13:21:53.440Z,12.74
2022-10-10T13:22:57.610Z,12.65
2022-10-10T13:24:04.356Z,12.61
2022-10-10T13:25:11.939Z,12.61
2022-10-10T13:26:51.601Z,12.60
2022-10-10T13:27:54.429Z,12.62
2022-10-10T13:29:02.190Z,12.62
2022-10-10T13:30:05.993Z,12.60
2022-10-10T13:31:13.840Z,12.62
2022-10-10T13:32:26.762Z,12.60
2022-10-10T13:33:33.931Z,12.53
2022-10-10T13:34:39.476Z,12.50
2022-10-10T13:35:42.578Z,12.53
2022-10-10T13:36:46.284Z,12.54
2022-10-10T13:37:59.934Z,12.47
2022-10-10T13:39:02.653Z,12.37
2022-10-10T13:40:06.315Z,12.40
2022-10-10T13:41:09.087Z,12.37
2022-10-10T13:42:33.327Z,12.35
2022-10-10T13:43:36.350Z,12.33
2022-10-10T13:44:51.365Z,12.36
2022-10-10T13:46:01.835Z,12.32
2022-10-10T13:47:41.329Z,12.22
2022-10-10T13:48:43.448Z,12.24
2022-10-10T13:49:59.925Z,12.20
2022-10-10T13:51:21.821Z,12.14
2022-10-10T13:52:24.387Z,12.14
2022-10-10T13:53:31.896Z,12.16
2022-10-10T13:54:37.173Z,12.11
2022-10-10T13:55:40.529Z,12.17
2022-10-10T13:56:46.011Z,12.12
2022-10-10T13:57:48.460Z,12.07
2022-10-10T13:59:05.014Z,12.06
2022-10-10T14:00:15.651Z,12.03
2022-10-10T14:01:32.859Z,11.98
2022-10-10T14:02:38.152Z,11.94
2022-10-10T14:03:48.713Z,11.96
2022-10-10T14:04:54.285Z,11.94
2022-10-10T14:05:57.494Z,11.89
2022-10-10T14:07:05.464Z,11.87
2022-10-10T14:08:18.308Z,11.89
2022-10-10T14:09:27.006Z,11.88
2022-10-10T14:10:36.322Z,11.86
2022-10-10T14:11:44.013Z,11.87
2022-10-10T14:12:58.946Z,11.83
2022-10-10T14:14:15.525Z,11.85
2022-10-10T14:15:51.073Z,11.87
2022-10-10T14:17:05.852Z,11.78
2022-10-10T14:18:18.135Z,11.70
2022-10-10T14:19:25.636Z,11.71
2022-10-10T14:20:28.966Z,11.71
2022-10-10T14:21:31.260Z,11.66
2022-10-10T14:22:33.572Z,11.65
2022-10-10T14:23:37.619Z,11.64
2022-10-10T14:24:39.699Z,11.58
2022-10-10T14:25:44.317Z,11.57
2022-10-10T14:26:48.375Z,11.50
2022-10-10T14:27:50.481Z,11.52
2022-10-10T14:28:52.713Z,11.50
2022-10-10T14:29:58.685Z,11.51
2022-10-10T14:31:06.757Z,11.49
2022-10-10T14:32:11.659Z,11.41
2022-10-10T14:33:17.482Z,11.44
2022-10-10T14:34:21.832Z,11.49
2022-10-10T14:35:25.744Z,11.44
2022-10-10T14:36:27.861Z,11.41
2022-10-10T14:37:32.179Z,11.38
2022-10-10T14:38:34.735Z,11.35